Nearby METAR Reports

 

EKAH - Tirstrup (civ/Mi, Denmark
Distance from station: SSW 25km
Updated: 25/01/2021 22:50
Overcast
Overcast
 Wind from W
Wind: W 4 km/h
Temperature: -1°C
Dew Point: -1°C
Humidity: 100%
Barometer: 1005 hPa
Clouds: Overcast
Visibility: 9 km
Cloud details: Overcast 823 m
2021/01/25 21:50 EKAH 252150Z AUTO 27002KT 9000 OVC027/// M01/M01 Q1005
EKYT - Alborg, Denmark
Distance from station: NW 91km
Updated: 25/01/2021 23:13
Fog, Mostly cloudy
Fog, Mostly cloudy
 Wind from calm
Wind: Calm
Temperature: -3°C
Dew Point: -3°C
Humidity: 100%
Barometer: 1005 hPa
Summary: Fog
Clouds: Mostly cloudy
Visibility: 0 km
Cloud details: Mostly cloudy 30 m
2021/01/25 22:13 EKYT 252213Z AUTO 00000KT 0100 R08L/0400N R26R/0275N FG BKN001/// M03/M03 Q1005 R26L/710195
EKKA - Karup (dan-Afb), Denmark
Distance from station: W 107km
Updated: 25/01/2021 22:50
Clear
Clear
 Wind from S
Wind: S 4 km/h
Temperature: -2°C
Dew Point: -2°C
Humidity: 100%
Barometer: 1004 hPa
Clouds: Clear
Visibility: 5 km
2021/01/25 21:50 EKKA 252150Z AUTO 19002KT 5000 NCD M02/M02 Q1004 R27L/790094
 
EKOD - Odense/Beldringe, Denmark
Distance from station: SSW 116km
Updated: 25/01/2021 16:50
NOT Current
Mostly cloudy
Mostly cloudy
 Wind from NW
Wind: NW 15 km/h
Temperature: 2°C
Wind Chill: -2°C
Dew Point: 1°C
Humidity: 93%
Barometer: 1002 hPa
Clouds: Mostly cloudy
Visibility: 10 km
Cloud details: Mostly cloudy 396 m
Mostly cloudy 518 m
2021/01/25 15:50 EKOD 251550Z 32008KT 9999 BKN013 BKN017 02/01 Q1002
EKBI - Billund Airport, Denmark
Distance from station: SW 134km
Updated: 25/01/2021 22:50
Freezing fog, Partly cloudy
Freezing fog, Partly cloudy
 Wind from ENE
Wind: ENE 2 km/h
Temperature: -3°C
Dew Point: -3°C
Humidity: 100%
Barometer: 1005 hPa
Summary: Freezing Fog
Clouds: Partly cloudy
Visibility: 0 km
2021/01/25 21:50 EKBI 252150Z 06001KT 0300 R09/P1500N R27/P1500N FZFG NSC M03/M03 Q1005 R09/310195
EKCH - Copenhagen/Kastr, Denmark
Distance from station: SE 148km
Updated: 25/01/2021 22:50
Mostly cloudy
Mostly cloudy
 Wind from W
Wind: W 11 km/h
Temperature: 1°C
Wind Chill: -2°C
Dew Point: 1°C
Humidity: 100%
Barometer: 1004 hPa
Clouds: Mostly cloudy
Visibility: 9 km
Cloud details: Few Clouds 366 m
Mostly cloudy 1341 m
2021/01/25 21:50 EKCH 252150Z AUTO 28006KT 9000 FEW012/// BKN044/// 01/01 Q1004 TEMPO BKN008